Time;durP1;ratioP1;P1;durP2;ratioP2;P2;SDS_P1;SDS_P2;PMS_P1;PMS_P2;Temp;Humidity;BMP_temperature;BMP_pressure;BME280_temperature;BME280_humidity;BME280_pressure;Samples;Min_cycle;Max_cycle;Signal;HPM_P1;HPM_P2
2022/01/03 00:01:20;;;;;;;15.10;6.07;;;8.90;96.90;;;;;;4928620;29;20129;-88
2022/01/03 00:03:47;;;;;;;14.02;6.50;;;8.80;96.90;;;;;;4942637;28;20032;-89
2022/01/03 00:06:15;;;;;;;16.95;6.47;;;8.80;97.00;;;;;;4917695;29;20038;-88
2022/01/03 00:08:43;;;;;;;16.58;7.07;;;8.80;97.00;;;;;;4925130;29;20123;-88
2022/01/03 00:11:11;;;;;;;23.02;8.38;;;8.80;97.10;;;;;;4949501;28;20507;-88
2022/01/03 00:13:46;;;;;;;23.95;9.13;;;8.80;97.10;;;;;;4943271;28;20028;-88
2022/01/03 00:16:14;;;;;;;17.05;9.05;;;8.80;97.20;;;;;;4945409;28;20163;-88
2022/01/03 00:18:40;;;;;;;20.52;10.05;;;8.90;97.10;;;;;;4941268;28;20038;-88
2022/01/03 00:21:17;;;;;;;15.45;9.25;;;8.90;97.00;;;;;;4918074;29;20024;-88
2022/01/03 00:23:59;;;;;;;18.17;8.95;;;9.00;97.00;;;;;;4941947;29;20115;-88
2022/01/03 00:26:28;;;;;;;15.60;7.93;;;9.00;96.90;;;;;;4935647;28;20411;-88
2022/01/03 00:29:00;;;;;;;13.45;9.05;;;8.90;96.80;;;;;;4937290;29;20028;-88
2022/01/03 00:31:40;;;;;;;16.67;8.63;;;8.90;96.80;;;;;;4941867;28;20091;-88
2022/01/03 00:34:11;;;;;;;11.93;8.00;;;8.90;96.90;;;;;;4916874;29;20024;-88
2022/01/03 00:36:37;;;;;;;15.38;7.65;;;8.80;96.80;;;;;;4924070;29;20024;-88
2022/01/03 00:39:07;;;;;;;14.18;7.57;;;8.80;96.80;;;;;;4939968;28;20471;-88
2022/01/03 00:41:33;;;;;;;8.48;4.93;;;8.80;96.90;;;;;;4930748;29;20380;-87
2022/01/03 00:43:58;;;;;;;11.23;5.18;;;8.80;96.50;;;;;;4930582;29;20090;-88
2022/01/03 00:46:27;;;;;;;10.40;4.15;;;8.80;96.10;;;;;;4930613;29;20395;-88
2022/01/03 00:48:54;;;;;;;9.88;5.32;;;8.80;96.10;;;;;;4941804;28;20046;-88
2022/01/03 00:51:22;;;;;;;11.85;5.47;;;8.80;96.30;;;;;;4918312;29;20032;-87
2022/01/03 00:53:48;;;;;;;8.85;5.32;;;8.70;96.40;;;;;;4923244;29;20036;-88
2022/01/03 00:56:37;;;;;;;12.57;5.25;;;8.70;96.50;;;;;;4941236;28;20087;-88
2022/01/03 00:59:10;;;;;;;9.82;5.45;;;8.70;96.70;;;;;;4925481;29;20031;-87
2022/01/03 01:01:43;;;;;;;11.00;5.90;;;8.60;96.80;;;;;;4929365;29;20059;-87
2022/01/03 01:04:09;;;;;;;7.95;4.75;;;8.60;96.90;;;;;;4929041;29;20024;-87
2022/01/03 01:06:37;;;;;;;10.43;5.13;;;8.60;97.00;;;;;;4927465;29;20067;-87
2022/01/03 01:09:06;;;;;;;10.43;5.22;;;8.60;97.10;;;;;;4930966;29;20032;-87
2022/01/03 01:11:32;;;;;;;12.32;5.38;;;8.60;97.20;;;;;;4944441;28;20102;-87
2022/01/03 01:13:59;;;;;;;10.55;6.03;;;8.60;97.30;;;;;;4946801;28;20032;-87
2022/01/03 01:16:28;;;;;;;11.10;5.50;;;8.50;97.40;;;;;;4947552;28;20024;-87
2022/01/03 01:18:54;;;;;;;12.05;5.10;;;8.60;97.50;;;;;;4930572;29;20044;-87
2022/01/03 01:21:20;;;;;;;4.03;2.10;;;8.50;97.50;;;;;;4943153;28;20032;-87
2022/01/03 01:23:49;;;;;;;3.42;1.52;;;8.50;96.70;;;;;;4949111;28;20023;-87
2022/01/03 01:29:02;;;;;;;7.32;1.25;;;8.40;95.70;;;;;;4929573;29;20087;-87
2022/01/03 01:31:27;;;;;;;4.05;1.30;;;8.30;95.90;;;;;;4916414;29;20032;-87
2022/01/03 01:33:58;;;;;;;4.50;1.27;;;8.20;96.10;;;;;;4921824;29;20364;-87
2022/01/03 01:36:28;;;;;;;2.55;1.23;;;8.20;96.20;;;;;;4932422;29;20028;-88
2022/01/03 01:39:00;;;;;;;4.28;1.30;;;8.20;96.10;;;;;;4941155;28;20027;-87
2022/01/03 01:41:29;;;;;;;1.13;0.82;;;8.30;96.00;;;;;;4926649;29;20071;-88
2022/01/03 01:43:59;;;;;;;2.00;0.93;;;8.30;96.00;;;;;;4921115;29;20031;-87
2022/01/03 01:46:48;;;;;;;1.90;0.85;;;8.30;96.20;;;;;;4931514;29;20078;-87
2022/01/03 01:49:37;;;;;;;;;;;;;;;;;;;;;
2022/01/03 01:55:20;;;;;;;0.65;0.60;;;8.10;95.30;;;;;;4925872;29;20040;-87
2022/01/03 01:58:04;;;;;;;1.77;0.50;;;8.10;95.20;;;;;;4943001;29;20027;-87
2022/01/03 02:00:38;;;;;;;1.85;0.50;;;8.00;95.10;;;;;;4926334;29;20548;-88
2022/01/03 02:03:38;;;;;;;0.95;0.60;;;7.90;94.40;;;;;;4922235;29;20241;-87
2022/01/03 02:06:29;;;;;;;1.03;0.57;;;7.90;94.80;;;;;;4929706;29;20032;-87
2022/01/03 02:09:31;;;;;;;0.57;0.40;;;7.80;94.90;;;;;;4927628;29;20399;-87
2022/01/03 02:12:07;;;;;;;;;;;;;;;;;;;;;
2022/01/03 02:15:11;;;;;;;3.97;0.70;;;7.70;95.50;;;;;;4929821;29;20013;-88
2022/01/03 02:17:49;;;;;;;3.25;1.02;;;7.70;95.70;;;;;;4924600;29;20115;-87
2022/01/03 02:20:30;;;;;;;4.10;0.68;;;7.70;95.80;;;;;;4929359;29;20039;-87
2022/01/03 02:22:58;;;;;;;2.80;0.80;;;7.70;95.80;;;;;;4934382;29;20031;-88
2022/01/03 02:25:38;;;;;;;;;;;;;;;;;;;;;
2022/01/03 02:28:04;;;;;;;2.88;0.60;;;7.60;95.30;;;;;;4930078;29;20034;-87
2022/01/03 02:30:34;;;;;;;0.80;0.60;;;7.60;95.50;;;;;;4947018;28;20028;-87
2022/01/03 02:33:00;;;;;;;3.35;0.80;;;7.60;95.40;;;;;;4942809;28;20083;-87
2022/01/03 02:35:38;;;;;;;;;;;;;;;;;;;;;
2022/01/03 02:38:05;;;;;;;5.07;0.80;;;7.50;95.60;;;;;;4930228;29;20811;-88
2022/01/03 02:40:36;;;;;;;4.63;1.13;;;7.50;95.70;;;;;;4942203;28;20032;-87
2022/01/03 02:43:03;;;;;;;4.95;1.08;;;7.60;95.60;;;;;;4944905;28;20020;-87
2022/01/03 02:45:32;;;;;;;4.13;1.10;;;7.60;95.70;;;;;;4944613;29;20040;-87
2022/01/03 02:48:00;;;;;;;6.68;1.45;;;7.50;96.00;;;;;;4934768;28;20032;-87
2022/01/03 02:50:33;;;;;;;3.13;1.25;;;7.50;96.10;;;;;;4924219;29;20066;-87
2022/01/03 02:53:01;;;;;;;8.93;1.40;;;7.50;96.10;;;;;;4945515;28;20024;-88
2022/01/03 02:55:34;;;;;;;7.00;1.73;;;7.60;96.00;;;;;;4921906;29;20144;-87
2022/01/03 02:58:08;;;;;;;3.22;1.33;;;7.50;96.20;;;;;;4926147;29;20518;-87
2022/01/03 03:03:32;;;;;;;2.70;1.10;;;7.50;96.50;;;;;;4924867;29;20027;-87
2022/01/03 03:06:05;;;;;;;6.45;1.70;;;7.40;96.60;;;;;;4928769;29;20027;-88
2022/01/03 03:08:33;;;;;;;3.17;1.25;;;7.50;96.70;;;;;;4927581;29;20027;-88
2022/01/03 03:11:02;;;;;;;3.97;1.55;;;7.50;96.90;;;;;;4921186;29;20027;-87
2022/01/03 03:13:35;;;;;;;6.25;1.50;;;7.50;96.90;;;;;;4932411;29;20408;-88
2022/01/03 03:16:12;;;;;;;7.40;1.60;;;7.50;96.90;;;;;;4943778;28;20036;-88
2022/01/03 03:19:00;;;;;;;8.27;2.28;;;7.50;96.90;;;;;;4929337;29;20028;-88
2022/01/03 03:21:32;;;;;;;10.88;1.65;;;7.50;96.90;;;;;;4940959;28;20036;-88
2022/01/03 03:24:02;;;;;;;5.80;2.05;;;7.50;96.90;;;;;;4925475;29;20024;-88
2022/01/03 03:26:30;;;;;;;5.55;2.20;;;7.50;96.90;;;;;;4948075;28;20020;-87
2022/01/03 03:28:58;;;;;;;9.00;2.10;;;7.50;96.90;;;;;;4945914;28;20033;-88
2022/01/03 03:31:24;;;;;;;7.88;2.10;;;7.60;96.90;;;;;;4948443;28;20024;-88
2022/01/03 03:33:54;;;;;;;12.98;2.30;;;7.60;96.80;;;;;;4929931;29;21047;-88
2022/01/03 03:36:27;;;;;;;8.83;2.27;;;7.60;96.70;;;;;;4938859;28;20016;-87
2022/01/03 03:38:52;;;;;;;9.05;2.75;;;7.70;96.70;;;;;;4923468;29;20448;-88
2022/01/03 03:41:18;;;;;;;9.82;3.15;;;7.70;96.60;;;;;;4918767;29;20119;-88
2022/01/03 03:43:45;;;;;;;12.85;3.00;;;7.70;96.70;;;;;;4924772;29;20099;-88
2022/01/03 03:46:22;;;;;;;7.80;2.90;;;7.70;96.60;;;;;;4924731;29;20027;-88
2022/01/03 03:49:06;;;;;;;9.90;2.72;;;7.80;96.50;;;;;;4933852;29;20365;-88
2022/01/03 03:51:42;;;;;;;;;;;;;;;;;;;;;
2022/01/03 03:54:10;;;;;;;11.95;3.13;;;7.80;96.30;;;;;;4923380;29;20039;-88
2022/01/03 03:56:46;;;;;;;;;;;;;;;;;;;;;
2022/01/03 03:59:16;;;;;;;12.75;2.92;;;7.90;96.20;;;;;;4923484;29;20383;-88
2022/01/03 04:01:44;;;;;;;12.73;2.83;;;8.00;96.20;;;;;;4928049;29;20095;-88
2022/01/03 04:04:12;;;;;;;7.72;1.90;;;8.00;96.20;;;;;;4935421;29;20436;-88
2022/01/03 04:06:40;;;;;;;14.55;2.95;;;8.00;96.10;;;;;;4944393;28;20028;-88
2022/01/03 04:09:11;;;;;;;14.70;2.92;;;8.00;96.20;;;;;;4944636;28;20066;-88
2022/01/03 04:11:39;;;;;;;16.30;2.60;;;8.00;96.30;;;;;;4924705;29;20085;-88
2022/01/03 04:14:04;;;;;;;11.00;2.63;;;8.00;96.30;;;;;;4938467;28;20035;-88
2022/01/03 04:16:30;;;;;;;9.52;2.55;;;8.00;96.30;;;;;;4941533;28;20091;-88
2022/01/03 04:18:56;;;;;;;15.55;2.75;;;8.00;96.30;;;;;;4929517;29;20035;-88
2022/01/03 04:21:31;;;;;;;13.00;2.50;;;8.00;96.40;;;;;;4915945;29;20039;-88
2022/01/03 04:24:07;;;;;;;9.75;2.67;;;8.00;96.40;;;;;;4926836;29;20031;-88
2022/01/03 04:26:36;;;;;;;12.60;2.55;;;8.00;96.40;;;;;;4941200;28;20059;-88
2022/01/03 04:29:05;;;;;;;13.70;2.67;;;8.10;96.30;;;;;;4940738;28;20440;-88
2022/01/03 04:34:27;;;;;;;15.50;3.20;;;8.10;96.30;;;;;;4928208;29;20476;-87
2022/01/03 04:36:59;;;;;;;15.30;3.78;;;8.10;96.40;;;;;;4939325;28;20084;-88
2022/01/03 04:39:28;;;;;;;19.00;3.85;;;8.10;96.50;;;;;;4929316;29;20063;-88
2022/01/03 04:41:56;;;;;;;20.83;4.60;;;8.10;96.60;;;;;;4931242;29;20622;-88
2022/01/03 04:44:21;;;;;;;24.73;4.38;;;8.10;96.60;;;;;;4927876;29;20028;-88
2022/01/03 04:46:50;;;;;;;17.77;4.65;;;8.10;96.60;;;;;;4921993;29;20083;-88
2022/01/03 04:49:18;;;;;;;16.63;4.55;;;8.10;96.60;;;;;;4943492;29;20036;-88
2022/01/03 04:51:44;;;;;;;16.08;4.40;;;8.10;96.50;;;;;;4940673;29;20056;-88
2022/01/03 04:54:09;;;;;;;21.10;4.55;;;8.10;96.50;;;;;;4929514;29;20398;-88
2022/01/03 04:56:42;;;;;;;18.77;4.63;;;8.10;96.50;;;;;;4937849;28;20028;-88
2022/01/03 04:59:08;;;;;;;27.15;5.38;;;8.10;96.50;;;;;;4926467;29;20024;-88
2022/01/03 05:01:33;;;;;;;14.20;3.83;;;8.20;96.20;;;;;;4920771;29;20507;-87
2022/01/03 05:03:59;;;;;;;24.73;4.60;;;8.20;96.10;;;;;;4925180;29;20031;-88
2022/01/03 05:06:30;;;;;;;19.02;3.92;;;8.20;95.80;;;;;;4928635;29;20028;-88
2022/01/03 05:08:58;;;;;;;18.55;3.78;;;8.20;95.80;;;;;;4944202;29;20026;-88
2022/01/03 05:11:23;;;;;;;14.05;3.80;;;8.20;95.80;;;;;;4929493;29;20041;-88
2022/01/03 05:13:49;;;;;;;24.20;4.30;;;8.20;95.70;;;;;;4927935;29;20035;-88
2022/01/03 05:16:17;;;;;;;19.33;3.50;;;8.20;95.80;;;;;;4921232;29;20031;-88
2022/01/03 05:18:42;;;;;;;19.20;3.83;;;8.20;95.70;;;;;;4928476;29;20023;-87
2022/01/03 05:21:08;;;;;;;20.45;4.20;;;8.30;95.50;;;;;;4937924;28;20039;-87
2022/01/03 05:23:34;;;;;;;28.08;4.43;;;8.20;95.70;;;;;;4943974;28;20396;-88
2022/01/03 05:25:59;;;;;;;21.05;4.50;;;8.30;95.70;;;;;;4927257;29;20020;-88
2022/01/03 05:28:25;;;;;;;12.00;3.35;;;8.20;95.60;;;;;;4929896;29;20035;-88
2022/01/03 05:30:50;;;;;;;16.38;5.05;;;8.30;95.30;;;;;;4928124;29;20036;-87
2022/01/03 05:33:16;;;;;;;20.70;5.03;;;8.30;95.20;;;;;;4927988;29;20436;-88
2022/01/03 05:35:41;;;;;;;18.48;4.22;;;8.30;95.50;;;;;;4918692;29;20046;-88
2022/01/03 05:38:07;;;;;;;22.27;5.78;;;8.30;95.50;;;;;;4927718;29;20377;-87
2022/01/03 05:40:32;;;;;;;18.20;4.97;;;8.20;95.60;;;;;;4922223;29;20032;-87
2022/01/03 05:43:03;;;;;;;26.17;5.47;;;8.30;95.40;;;;;;4940869;28;20043;-87
2022/01/03 05:45:37;;;;;;;24.83;4.82;;;8.30;95.30;;;;;;4939443;28;20032;-87
2022/01/03 05:48:02;;;;;;;34.40;5.40;;;8.30;95.10;;;;;;4919827;29;20059;-87
2022/01/03 05:50:28;;;;;;;19.15;5.20;;;8.30;95.10;;;;;;4938218;28;20134;-88
2022/01/03 05:52:53;;;;;;;15.60;4.18;;;8.30;94.90;;;;;;4928909;29;20028;-87
2022/01/03 05:55:24;;;;;;;18.40;4.20;;;8.30;94.80;;;;;;4944290;28;20419;-87
2022/01/03 05:57:52;;;;;;;21.13;3.50;;;8.30;94.70;;;;;;4928853;29;20036;-87
2022/01/03 06:00:24;;;;;;;20.48;3.70;;;8.30;94.60;;;;;;4921405;29;20032;-87
2022/01/03 06:02:55;;;;;;;29.90;4.45;;;8.30;94.20;;;;;;4949624;28;20055;-88
2022/01/03 06:05:53;;;;;;;20.02;3.08;;;8.40;93.60;;;;;;4940137;28;20463;-86
2022/01/03 06:08:10;;;;;;;22.17;3.50;;;8.30;93.70;;;;;;4927615;29;20085;-87
2022/01/03 06:10:40;;;;;;;17.15;3.67;;;8.30;93.70;;;;;;4929290;29;20424;-87
2022/01/03 06:13:24;;;;;;;20.92;3.78;;;8.30;93.60;;;;;;4933514;29;20028;-89
2022/01/03 06:15:50;;;;;;;15.88;3.42;;;8.30;93.60;;;;;;4946817;28;20130;-88
2022/01/03 06:18:22;;;;;;;24.13;3.50;;;8.30;93.50;;;;;;4938720;28;20115;-88
2022/01/03 06:20:49;;;;;;;25.60;3.55;;;8.20;93.80;;;;;;4935641;29;20039;-88
2022/01/03 06:23:19;;;;;;;26.05;4.50;;;8.20;93.70;;;;;;4930420;29;20102;-87
2022/01/03 06:25:45;;;;;;;17.70;3.55;;;8.10;93.70;;;;;;4944838;28;20032;-88
2022/01/03 06:28:13;;;;;;;31.10;3.55;;;8.20;93.50;;;;;;4930967;29;20082;-88
2022/01/03 06:30:42;;;;;;;16.77;3.08;;;8.20;93.80;;;;;;4929454;29;20032;-88
2022/01/03 06:33:11;;;;;;;22.85;3.83;;;8.30;93.30;;;;;;4932461;29;20020;-88
2022/01/03 06:35:39;;;;;;;19.23;3.28;;;8.20;93.60;;;;;;4919733;29;20118;-88
2022/01/03 06:38:05;;;;;;;17.60;3.38;;;8.20;93.70;;;;;;4918550;29;20043;-88
2022/01/03 06:40:31;;;;;;;20.02;3.17;;;8.20;93.90;;;;;;4926057;29;20477;-88
2022/01/03 06:42:56;;;;;;;24.38;3.85;;;8.30;93.30;;;;;;4944225;28;20029;-88
2022/01/03 06:45:24;;;;;;;16.95;3.65;;;8.20;93.80;;;;;;4930987;29;20024;-88
2022/01/03 06:47:55;;;;;;;18.23;3.60;;;8.30;93.30;;;;;;4937010;28;20505;-88
2022/01/03 06:50:21;;;;;;;16.90;3.75;;;8.30;93.20;;;;;;4938304;29;20484;-88
2022/01/03 06:52:48;;;;;;;23.52;3.72;;;8.30;93.60;;;;;;4948601;28;20399;-88
2022/01/03 06:55:16;;;;;;;18.70;3.42;;;8.30;93.50;;;;;;4924968;29;20070;-88
2022/01/03 07:00:45;;;;;;;8.52;2.10;;;8.20;94.10;;;;;;4925183;29;20044;-88
2022/01/03 07:03:31;;;;;;;23.48;3.30;;;8.20;94.20;;;;;;4920901;29;20503;-88
2022/01/03 07:05:59;;;;;;;18.10;3.45;;;8.10;94.50;;;;;;4922932;29;20057;-88
2022/01/03 07:08:29;;;;;;;23.25;4.18;;;8.10;95.10;;;;;;4945089;28;20062;-88
2022/01/03 07:11:00;;;;;;;18.60;4.00;;;8.10;95.30;;;;;;4946584;28;20504;-89
2022/01/03 07:13:27;;;;;;;22.08;4.07;;;8.00;95.60;;;;;;4941220;28;20283;-88
2022/01/03 07:18:56;;;;;;;24.08;4.40;;;8.00;96.00;;;;;;4925894;29;20155;-89
2022/01/03 07:21:25;;;;;;;21.33;4.32;;;8.00;95.80;;;;;;4926128;29;20419;-89
2022/01/03 07:23:51;;;;;;;18.73;3.72;;;8.00;95.80;;;;;;4923679;29;20035;-89
2022/01/03 07:26:18;;;;;;;24.92;4.30;;;8.00;96.00;;;;;;4949161;28;20038;-89
2022/01/03 07:28:44;;;;;;;22.80;4.38;;;8.00;95.90;;;;;;4927746;29;20031;-89
2022/01/03 07:31:13;;;;;;;24.90;4.60;;;8.00;96.00;;;;;;4926748;29;20032;-90
2022/01/03 07:33:43;;;;;;;24.50;3.95;;;8.00;95.90;;;;;;4929818;29;20036;-90
2022/01/03 07:36:09;;;;;;;17.97;4.17;;;8.00;96.00;;;;;;4924827;29;20110;-89
2022/01/03 07:38:35;;;;;;;18.10;3.60;;;8.00;96.00;;;;;;4931000;29;20280;-90
2022/01/03 07:41:03;;;;;;;18.60;3.15;;;7.90;96.00;;;;;;4930449;29;20436;-90
2022/01/03 07:43:33;;;;;;;25.65;4.38;;;7.90;95.90;;;;;;4945556;28;20028;-90
2022/01/03 07:45:59;;;;;;;21.10;3.85;;;7.90;95.60;;;;;;4928156;29;20571;-89
2022/01/03 07:48:24;;;;;;;19.20;3.63;;;7.90;95.60;;;;;;4926332;29;20040;-89
2022/01/03 07:50:50;;;;;;;25.90;3.55;;;7.80;95.60;;;;;;4923658;29;20039;-88
2022/01/03 07:53:15;;;;;;;24.55;4.35;;;7.80;95.70;;;;;;4941307;28;20114;-88
2022/01/03 07:55:41;;;;;;;21.67;3.53;;;7.80;95.50;;;;;;4928144;29;20436;-89
2022/01/03 07:58:07;;;;;;;24.23;4.55;;;7.80;95.50;;;;;;4928840;29;20028;-88
2022/01/03 08:00:38;;;;;;;29.10;4.78;;;7.70;95.60;;;;;;4928661;29;20115;-88
2022/01/03 08:03:04;;;;;;;23.33;3.85;;;7.80;95.60;;;;;;4925484;29;20485;-88
2022/01/03 08:05:29;;;;;;;27.33;4.05;;;7.80;95.50;;;;;;4943395;28;20087;-89
2022/01/03 08:07:55;;;;;;;19.40;3.50;;;7.90;95.50;;;;;;4928446;28;20028;-88
2022/01/03 08:10:23;;;;;;;21.42;3.72;;;7.90;95.20;;;;;;4943894;28;20032;-88
2022/01/03 08:12:48;;;;;;;23.23;3.45;;;7.80;95.20;;;;;;4927805;29;20042;-89
2022/01/03 08:15:14;;;;;;;21.73;3.80;;;7.90;95.00;;;;;;4931934;29;20034;-88
2022/01/03 08:17:39;;;;;;;20.73;3.25;;;8.00;94.70;;;;;;4929729;29;20370;-87
2022/01/03 08:20:06;;;;;;;23.45;3.83;;;8.00;94.50;;;;;;4930488;29;20131;-87
2022/01/03 08:22:31;;;;;;;21.40;4.60;;;8.00;94.20;;;;;;4929389;29;20024;-87
2022/01/03 08:24:57;;;;;;;22.33;3.83;;;8.00;94.50;;;;;;4931920;29;20388;-87
2022/01/03 08:27:22;;;;;;;18.45;3.08;;;8.00;94.30;;;;;;4951842;28;20046;-87
2022/01/03 08:29:48;;;;;;;23.05;3.83;;;8.00;94.30;;;;;;4933233;29;20082;-87
2022/01/03 08:32:13;;;;;;;21.27;3.28;;;8.00;94.20;;;;;;4929628;29;20087;-87
2022/01/03 08:34:39;;;;;;;20.65;3.60;;;8.10;94.20;;;;;;4952216;28;20023;-87
2022/01/03 08:37:04;;;;;;;21.17;3.95;;;8.10;94.10;;;;;;4933500;29;20031;-87
2022/01/03 08:39:30;;;;;;;25.35;4.20;;;8.10;94.20;;;;;;4939587;28;20069;-87
2022/01/03 08:41:56;;;;;;;24.08;3.95;;;8.10;94.00;;;;;;4928549;29;20074;-87
2022/01/03 08:44:22;;;;;;;17.13;2.75;;;8.10;94.00;;;;;;4931780;29;20107;-88
2022/01/03 08:46:49;;;;;;;17.77;3.45;;;8.10;93.80;;;;;;4928070;29;20465;-87
2022/01/03 08:49:15;;;;;;;25.23;3.53;;;8.10;93.80;;;;;;4941716;29;20118;-88
2022/01/03 08:51:40;;;;;;;22.23;3.33;;;8.20;93.50;;;;;;4938063;28;20135;-87
2022/01/03 08:54:06;;;;;;;27.70;3.60;;;8.20;93.50;;;;;;4926439;29;20142;-87
2022/01/03 08:56:31;;;;;;;18.85;2.85;;;8.20;93.70;;;;;;4930164;28;20032;-87
2022/01/03 08:59:00;;;;;;;22.60;3.28;;;8.20;93.80;;;;;;4925835;29;20038;-87
2022/01/03 09:01:25;;;;;;;20.27;4.03;;;8.20;93.80;;;;;;4929859;29;20032;-87
2022/01/03 09:03:51;;;;;;;15.57;3.28;;;8.30;93.60;;;;;;4942505;28;20039;-87
2022/01/03 09:06:17;;;;;;;20.35;3.70;;;8.20;93.80;;;;;;4932247;29;20043;-87
2022/01/03 09:08:44;;;;;;;18.38;3.40;;;8.30;93.60;;;;;;4928009;29;20404;-87
2022/01/03 09:11:09;;;;;;;18.08;3.58;;;8.30;93.70;;;;;;4943900;28;20075;-87
2022/01/03 09:13:35;;;;;;;23.60;3.33;;;8.30;93.60;;;;;;4931838;28;20547;-87
2022/01/03 09:16:06;;;;;;;18.35;3.22;;;8.30;93.70;;;;;;4929799;29;20396;-87
2022/01/03 09:18:32;;;;;;;24.88;3.75;;;8.30;93.50;;;;;;4928660;29;20045;-88
2022/01/03 09:20:57;;;;;;;17.75;2.95;;;8.40;93.50;;;;;;4944561;28;20036;-87
2022/01/03 09:23:28;;;;;;;17.90;3.00;;;8.40;93.30;;;;;;4943983;28;20043;-88
2022/01/03 09:28:49;;;;;;;18.05;3.78;;;8.50;93.30;;;;;;4927185;29;20050;-87
2022/01/03 09:31:16;;;;;;;29.20;4.22;;;8.50;93.40;;;;;;4945664;28;20102;-87
2022/01/03 09:33:42;;;;;;;19.23;3.63;;;8.50;93.20;;;;;;4942404;28;20399;-87
2022/01/03 09:36:08;;;;;;;20.55;3.10;;;8.60;92.80;;;;;;4947484;28;20027;-87
2022/01/03 09:38:34;;;;;;;19.77;3.63;;;8.60;92.90;;;;;;4937118;29;20178;-87
2022/01/03 09:41:02;;;;;;;21.33;3.42;;;8.60;92.50;;;;;;4945546;28;20400;-87
2022/01/03 09:43:50;;;;;;;29.75;4.68;;;8.60;92.80;;;;;;4931543;29;20027;-87
2022/01/03 09:46:32;;;;;;;26.13;4.07;;;8.50;93.10;;;;;;4932307;29;20020;-88
2022/01/03 09:48:57;;;;;;;27.00;4.18;;;8.50;93.00;;;;;;4943933;28;20277;-87
2022/01/03 09:51:29;;;;;;;23.40;4.40;;;8.50;93.30;;;;;;4929767;29;20174;-87
2022/01/03 09:54:02;;;;;;;26.02;3.83;;;8.60;93.00;;;;;;4930684;29;20114;-87
2022/01/03 09:56:30;;;;;;;18.42;4.00;;;8.50;93.10;;;;;;4932447;29;20039;-87
2022/01/03 09:58:57;;;;;;;23.15;3.72;;;8.50;93.10;;;;;;4945612;28;20036;-87
2022/01/03 10:01:24;;;;;;;19.15;3.85;;;8.50;93.00;;;;;;4933800;29;20111;-87
2022/01/03 10:03:49;;;;;;;24.02;3.90;;;8.50;92.90;;;;;;4941858;28;20028;-87
2022/01/03 10:06:19;;;;;;;24.02;4.32;;;8.50;92.70;;;;;;4942009;28;20495;-87
2022/01/03 10:08:47;;;;;;;33.40;4.07;;;8.60;92.90;;;;;;4932035;29;20047;-87
2022/01/03 10:11:13;;;;;;;21.98;3.58;;;8.70;92.70;;;;;;4935622;28;20059;-87
2022/01/03 10:13:39;;;;;;;18.50;3.75;;;8.90;92.30;;;;;;4931884;29;20042;-87
2022/01/03 10:16:05;;;;;;;26.15;4.40;;;9.00;92.00;;;;;;4938003;29;20023;-87
2022/01/03 10:18:33;;;;;;;14.40;3.83;;;9.00;91.60;;;;;;4933002;29;20119;-87
2022/01/03 10:20:59;;;;;;;23.38;4.13;;;9.10;91.10;;;;;;4941352;28;20027;-87
2022/01/03 10:23:24;;;;;;;23.98;4.07;;;9.10;91.50;;;;;;4933039;29;20031;-87
2022/01/03 10:25:50;;;;;;;21.90;4.10;;;9.10;91.00;;;;;;4926915;29;20031;-87
2022/01/03 10:28:24;;;;;;;26.13;4.05;;;9.10;91.00;;;;;;4930142;29;20095;-87
2022/01/03 10:30:51;;;;;;;17.52;4.05;;;9.20;90.70;;;;;;4928525;29;20028;-87
2022/01/03 10:33:22;;;;;;;18.95;4.03;;;9.20;90.70;;;;;;4947436;28;20070;-88
2022/01/03 10:35:55;;;;;;;17.25;3.45;;;9.20;90.30;;;;;;4942967;28;20496;-87
2022/01/03 10:38:45;;;;;;;18.80;3.58;;;9.30;90.50;;;;;;4949761;28;20042;-87
2022/01/03 10:41:19;;;;;;;28.05;4.25;;;9.40;90.20;;;;;;4928452;29;20495;-87
2022/01/03 10:43:50;;;;;;;20.73;3.85;;;9.40;89.90;;;;;;4931665;29;20127;-87
2022/01/03 10:46:35;;;;;;;19.52;3.85;;;9.40;90.30;;;;;;4935650;29;20411;-87
2022/01/03 10:49:16;;;;;;;12.57;3.00;;;9.30;89.20;;;;;;4933246;29;20039;-87
2022/01/03 10:51:42;;;;;;;22.48;4.20;;;9.30;88.90;;;;;;4942310;28;20032;-87
2022/01/03 10:54:11;;;;;;;21.02;3.83;;;9.30;88.90;;;;;;4926032;29;21339;-87
2022/01/03 10:56:39;;;;;;;17.30;3.30;;;9.40;88.80;;;;;;4931246;29;20032;-87
2022/01/03 10:59:18;;;;;;;21.92;4.00;;;9.50;88.60;;;;;;4927617;29;20043;-87
2022/01/03 11:01:46;;;;;;;19.90;3.70;;;9.50;88.20;;;;;;4928220;29;20028;-87
2022/01/03 11:04:32;;;;;;;21.52;3.97;;;9.50;88.70;;;;;;4945991;28;20028;-87
2022/01/03 11:13:11;;;;;;;19.80;3.55;;;9.50;88.40;;;;;;4930213;29;20047;-87
2022/01/03 11:16:00;;;;;;;17.08;3.75;;;9.50;88.40;;;;;;4947536;28;20023;-88
2022/01/03 11:18:26;;;;;;;14.63;3.17;;;9.60;87.60;;;;;;4940302;28;20538;-87
2022/01/03 11:21:14;;;;;;;19.98;4.40;;;9.60;87.30;;;;;;4914766;29;20043;-87
2022/01/03 11:23:42;;;;;;;30.73;3.90;;;9.60;87.40;;;;;;4916366;29;20095;-87
2022/01/03 11:26:16;;;;;;;20.77;3.95;;;9.70;87.20;;;;;;4924975;29;20102;-87
2022/01/03 11:28:43;;;;;;;16.30;4.13;;;9.70;87.60;;;;;;4944355;28;20035;-87
2022/01/03 11:31:11;;;;;;;23.58;3.63;;;9.60;87.90;;;;;;4930992;29;20024;-87
2022/01/03 11:33:38;;;;;;;14.52;3.42;;;9.60;88.20;;;;;;4926717;29;20466;-88
2022/01/03 11:36:04;;;;;;;18.70;3.25;;;9.40;88.40;;;;;;4931883;29;20035;-87
2022/01/03 11:38:33;;;;;;;21.27;3.33;;;9.40;89.20;;;;;;4925354;29;20074;-87
2022/01/03 11:41:05;;;;;;;20.73;3.90;;;9.40;88.30;;;;;;4938599;28;20031;-87
2022/01/03 11:43:35;;;;;;;19.38;3.70;;;9.40;88.60;;;;;;4928629;29;20027;-87
2022/01/03 11:46:01;;;;;;;15.25;3.50;;;9.50;88.40;;;;;;4926838;29;20472;-87
2022/01/03 11:48:29;;;;;;;12.95;3.03;;;9.40;88.60;;;;;;4927908;29;20136;-87
2022/01/03 11:50:58;;;;;;;22.95;3.83;;;9.40;88.50;;;;;;4943011;28;20036;-87
2022/01/03 11:53:25;;;;;;;23.60;4.15;;;9.40;88.50;;;;;;4927487;29;20032;-88
2022/01/03 11:55:53;;;;;;;17.10;3.08;;;9.50;88.30;;;;;;4930356;29;20035;-87
2022/01/03 11:58:50;;;;;;;14.82;3.60;;;9.60;88.80;;;;;;4942039;28;20472;-87
2022/01/03 12:04:14;;;;;;;9.77;2.70;;;9.60;87.90;;;;;;4930750;29;20773;-87
2022/01/03 12:06:41;;;;;;;14.30;3.17;;;9.50;88.50;;;;;;4924651;29;20035;-88
2022/01/03 12:09:10;;;;;;;17.13;3.95;;;9.30;89.50;;;;;;4929527;29;20023;-87
2022/01/03 12:11:53;;;;;;;20.48;3.58;;;9.20;89.60;;;;;;4943650;28;20032;-87
2022/01/03 12:14:20;;;;;;;17.10;3.55;;;9.10;91.00;;;;;;4946398;28;20079;-87
2022/01/03 12:16:54;;;;;;;22.80;3.90;;;9.00;91.00;;;;;;4945557;28;20055;-87
2022/01/03 12:19:33;;;;;;;19.58;3.53;;;8.90;92.30;;;;;;4932765;29;20028;-87
2022/01/03 12:22:06;;;;;;;21.10;3.60;;;8.80;93.00;;;;;;4941736;28;20031;-88
2022/01/03 12:24:32;;;;;;;22.58;4.30;;;8.80;93.20;;;;;;4928084;29;20046;-87
2022/01/03 12:27:10;;;;;;;22.63;4.05;;;8.80;93.50;;;;;;4946112;28;20020;-87
2022/01/03 12:29:54;;;;;;;15.98;3.70;;;8.80;93.10;;;;;;4947987;28;20055;-87
2022/01/03 12:32:26;;;;;;;16.83;3.97;;;9.00;92.80;;;;;;4930054;29;20990;-87
2022/01/03 12:35:15;;;;;;;25.17;4.38;;;9.10;92.40;;;;;;4928358;29;20032;-88
2022/01/03 12:38:03;;;;;;;18.83;3.90;;;9.20;92.10;;;;;;4943759;28;20042;-88
2022/01/03 12:40:31;;;;;;;15.38;3.63;;;9.20;91.40;;;;;;4941702;28;20028;-87
2022/01/03 12:43:05;;;;;;;11.45;2.50;;;8.40;93.20;;;;;;4927490;29;20118;-87
2022/01/03 12:45:34;;;;;;;7.25;2.25;;;7.10;94.30;;;;;;4926035;29;20158;-88
2022/01/03 12:48:18;;;;;;;9.85;2.50;;;7.00;95.40;;;;;;4930056;29;20507;-87
2022/01/03 12:50:53;;;;;;;9.88;2.88;;;7.40;95.40;;;;;;4923588;29;20384;-87
2022/01/03 12:53:28;;;;;;;20.00;3.45;;;7.70;95.40;;;;;;4947476;28;20019;-87
2022/01/03 12:56:04;;;;;;;14.32;3.50;;;7.80;95.20;;;;;;4945487;28;20028;-87
2022/01/03 12:58:29;;;;;;;14.45;2.80;;;7.90;95.70;;;;;;4927706;29;20119;-88
2022/01/03 13:01:12;;;;;;;12.88;3.50;;;8.10;95.20;;;;;;4946685;28;20130;-88
2022/01/03 13:03:49;;;;;;;16.48;4.00;;;8.50;93.90;;;;;;4925629;29;20043;-88
2022/01/03 13:06:19;;;;;;;14.68;3.60;;;8.60;93.30;;;;;;4940870;28;20031;-88
2022/01/03 13:08:47;;;;;;;23.73;4.07;;;8.80;92.10;;;;;;4943564;28;20115;-88
2022/01/03 13:11:15;;;;;;;21.77;2.95;;;8.90;92.10;;;;;;4935357;29;20039;-88
2022/01/03 13:13:42;;;;;;;15.77;3.05;;;8.80;92.60;;;;;;4931959;29;20040;-87
2022/01/03 13:16:25;;;;;;;20.05;3.25;;;8.80;91.00;;;;;;4930683;29;20087;-87
2022/01/03 13:18:53;;;;;;;24.10;3.85;;;8.80;91.40;;;;;;4940973;28;20805;-88
2022/01/03 13:21:20;;;;;;;16.70;3.10;;;8.70;91.40;;;;;;4926775;29;20062;-88
2022/01/03 13:23:54;;;;;;;19.88;3.60;;;8.70;91.00;;;;;;4945137;28;20024;-88
2022/01/03 13:26:21;;;;;;;18.92;3.55;;;8.70;91.40;;;;;;4925555;29;20508;-88
2022/01/03 13:28:47;;;;;;;17.95;3.40;;;8.60;91.30;;;;;;4930319;29;20399;-87
2022/01/03 13:31:13;;;;;;;20.08;3.45;;;8.80;90.10;;;;;;4944757;28;20027;-87
2022/01/03 13:33:39;;;;;;;24.95;3.05;;;8.80;90.30;;;;;;4946225;28;20086;-87
2022/01/03 13:36:05;;;;;;;24.63;3.53;;;8.90;90.50;;;;;;4940986;28;20028;-87
2022/01/03 13:38:34;;;;;;;16.15;3.10;;;9.00;89.30;;;;;;4948940;28;20024;-88
2022/01/03 13:41:19;;;;;;;13.13;2.90;;;9.10;88.40;;;;;;4949295;28;20028;-87